createdAt,value
2023-03-05T00:04:20.041Z,5.70
2023-03-05T00:09:22.060Z,5.80
2023-03-05T00:14:23.982Z,5.80
2023-03-05T00:19:25.796Z,5.70
2023-03-05T00:24:27.854Z,5.80
2023-03-05T00:29:31.873Z,5.80
2023-03-05T00:34:34.165Z,5.70
2023-03-05T00:39:36.219Z,5.80
2023-03-05T00:44:38.036Z,5.70
2023-03-05T00:49:39.814Z,5.60
2023-03-05T00:54:41.625Z,5.60
2023-03-05T00:59:43.689Z,5.70
2023-03-05T01:04:47.477Z,5.50
2023-03-05T01:09:49.411Z,5.70
2023-03-05T01:14:51.346Z,5.50
2023-03-05T01:19:53.320Z,5.50
2023-03-05T01:24:55.147Z,5.50
2023-03-05T01:29:56.984Z,5.60
2023-03-05T01:34:59.027Z,5.50
2023-03-05T01:40:00.803Z,5.60
2023-03-05T01:45:13.366Z,5.50
2023-03-05T01:50:20.652Z,5.50
2023-03-05T01:55:24.699Z,5.60
2023-03-05T02:00:34.193Z,5.60
2023-03-05T02:05:38.247Z,5.60
2023-03-05T02:10:44.675Z,5.50
2023-03-05T02:15:47.910Z,5.50
2023-03-05T02:20:56.379Z,5.50
2023-03-05T02:25:58.522Z,5.50
2023-03-05T02:31:01.001Z,5.50
2023-03-05T02:36:03.052Z,5.60
2023-03-05T02:41:05.428Z,5.40
2023-03-05T02:46:08.083Z,5.40
2023-03-05T02:51:11.058Z,5.50
2023-03-05T02:56:13.250Z,5.40
2023-03-05T03:01:15.252Z,5.40
2023-03-05T03:06:17.259Z,5.40
2023-03-05T03:11:19.531Z,5.40
2023-03-05T03:16:21.387Z,5.30
2023-03-05T03:21:25.980Z,5.30
2023-03-05T03:26:28.801Z,5.30
2023-03-05T03:31:30.584Z,5.30
2023-03-05T03:36:32.651Z,5.20
2023-03-05T03:41:34.769Z,5.30
2023-03-05T03:46:38.189Z,5.30
2023-03-05T03:51:40.018Z,5.30
2023-03-05T03:56:42.131Z,5.30
2023-03-05T04:01:44.346Z,5.30
2023-03-05T04:06:46.228Z,5.20
2023-03-05T04:11:48.171Z,5.10
2023-03-05T04:16:50.518Z,5.10
2023-03-05T04:21:52.671Z,5.10
2023-03-05T04:26:54.650Z,5.00
2023-03-05T04:31:56.691Z,5.00
2023-03-05T04:36:58.506Z,5.10
2023-03-05T04:42:00.802Z,5.00
2023-03-05T04:47:02.639Z,5.10
2023-03-05T04:52:04.670Z,5.10
2023-03-05T04:57:06.802Z,5.10
2023-03-05T05:02:08.769Z,5.10
2023-03-05T05:07:11.263Z,4.90
2023-03-05T05:12:13.328Z,5.00
2023-03-05T05:17:15.315Z,5.20
2023-03-05T05:22:17.557Z,5.10
2023-03-05T05:27:19.457Z,5.00
2023-03-05T05:32:24.389Z,5.10
2023-03-05T05:37:27.053Z,5.00
2023-03-05T05:42:29.877Z,5.00
2023-03-05T05:47:32.062Z,5.00
2023-03-05T05:52:33.900Z,5.00
2023-03-05T05:57:36.050Z,5.00
2023-03-05T06:02:39.581Z,5.20
2023-03-05T06:07:41.734Z,5.00
2023-03-05T06:12:43.565Z,5.00
2023-03-05T06:17:46.587Z,5.00
2023-03-05T06:22:48.396Z,5.00
2023-03-05T06:27:50.217Z,5.00
2023-03-05T06:32:52.135Z,5.00
2023-03-05T06:37:56.123Z,4.90
2023-03-05T06:42:57.956Z,4.80
2023-03-05T06:47:59.746Z,4.70
2023-03-05T06:53:01.638Z,4.80
2023-03-05T06:58:03.427Z,4.90
2023-03-05T07:03:05.226Z,4.80
2023-03-05T07:08:07.397Z,4.80
2023-03-05T07:13:10.037Z,4.80
2023-03-05T07:18:11.815Z,4.90
2023-03-05T07:23:14.066Z,5.00
2023-03-05T07:28:15.859Z,5.00
2023-03-05T07:33:17.638Z,5.10
2023-03-05T07:38:19.620Z,5.20
2023-03-05T07:43:21.385Z,5.20
2023-03-05T07:48:23.913Z,5.10
2023-03-05T07:53:25.817Z,5.30
2023-03-05T07:58:27.642Z,5.30
2023-03-05T08:03:29.475Z,5.40
2023-03-05T08:08:31.241Z,5.60
2023-03-05T08:13:33.295Z,5.50
2023-03-05T08:18:35.731Z,5.70
2023-03-05T08:23:37.736Z,5.50
2023-03-05T08:28:39.603Z,5.60
2023-03-05T08:33:41.978Z,5.70
2023-03-05T08:38:46.908Z,5.90
2023-03-05T08:43:48.837Z,6.00
2023-03-05T08:48:50.798Z,5.90
2023-03-05T08:53:54.262Z,6.00
2023-03-05T08:58:56.036Z,6.10
2023-03-05T09:04:01.605Z,6.00
2023-03-05T09:09:03.436Z,6.40
2023-03-05T09:14:06.972Z,6.30
2023-03-05T09:19:10.660Z,6.30
2023-03-05T09:24:13.722Z,6.10
2023-03-05T09:29:15.904Z,6.00
2023-03-05T09:34:17.666Z,5.90
2023-03-05T09:39:19.503Z,5.80
2023-03-05T09:44:34.796Z,5.30
2023-03-05T09:49:57.991Z,5.30
2023-03-05T09:54:59.908Z,5.60
2023-03-05T10:00:09.042Z,5.60
2023-03-05T10:05:20.961Z,5.50
2023-03-05T10:10:31.676Z,5.50
2023-03-05T10:15:56.331Z,5.70
2023-03-05T10:20:59.869Z,5.60
2023-03-05T10:26:29.790Z,5.70
2023-03-05T10:31:37.790Z,6.20
2023-03-05T10:36:58.486Z,6.00
2023-03-05T10:42:39.220Z,6.30
2023-03-05T10:47:59.448Z,6.40
2023-03-05T10:53:13.968Z,6.70
2023-03-05T10:58:17.933Z,6.80
2023-03-05T11:03:19.852Z,6.90
2023-03-05T11:08:29.977Z,6.90
2023-03-05T11:13:33.866Z,6.60
2023-03-05T11:18:35.798Z,6.70
2023-03-05T11:23:38.208Z,6.50
2023-03-05T11:29:01.678Z,6.50
2023-03-05T11:34:23.770Z,6.90
2023-03-05T11:39:26.460Z,7.00
2023-03-05T11:44:49.089Z,7.20
2023-03-05T11:49:56.067Z,7.10
2023-03-05T11:55:25.746Z,7.40
2023-03-05T12:00:30.656Z,7.20
2023-03-05T12:05:34.443Z,6.80
2023-03-05T12:10:36.272Z,7.10
2023-03-05T12:15:48.031Z,6.90
2023-03-05T12:21:05.570Z,7.10
2023-03-05T12:26:07.384Z,7.00
2023-03-05T12:31:09.120Z,7.30
2023-03-05T12:36:19.812Z,7.30
2023-03-05T12:41:25.857Z,7.40
2023-03-05T12:46:33.055Z,7.10
2023-03-05T12:51:38.024Z,7.10
2023-03-05T12:56:45.524Z,6.80
2023-03-05T13:01:53.754Z,6.50
2023-03-05T13:07:14.087Z,6.90
2023-03-05T13:12:15.921Z,6.90
2023-03-05T13:17:41.100Z,7.00
2023-03-05T13:22:42.896Z,6.70
2023-03-05T13:27:44.770Z,6.80
2023-03-05T13:32:52.046Z,6.90
2023-03-05T13:37:54.008Z,6.80
2023-03-05T13:42:56.856Z,6.80
2023-03-05T13:48:00.978Z,6.50
2023-03-05T13:53:20.917Z,6.50
2023-03-05T13:58:44.342Z,6.50
2023-03-05T14:03:51.125Z,6.50
2023-03-05T14:08:59.795Z,6.50
2023-03-05T14:14:17.770Z,6.70
2023-03-05T14:19:35.371Z,6.40
2023-03-05T14:24:37.630Z,6.40
2023-03-05T14:29:45.830Z,6.30
2023-03-05T14:34:54.764Z,6.40
2023-03-05T14:39:59.571Z,6.30
2023-03-05T14:45:20.708Z,6.30
2023-03-05T14:50:27.836Z,6.30
2023-03-05T14:55:33.475Z,6.40
2023-03-05T15:00:35.329Z,6.40
2023-03-05T15:05:38.048Z,6.30
2023-03-05T15:10:40.016Z,6.40
2023-03-05T15:15:43.388Z,6.20
2023-03-05T15:20:46.556Z,6.30
2023-03-05T15:25:48.369Z,6.10
2023-03-05T15:30:50.300Z,6.10
2023-03-05T15:35:52.341Z,6.20
2023-03-05T15:40:54.313Z,6.20
2023-03-05T15:45:56.125Z,6.10
2023-03-05T15:50:58.166Z,6.10
2023-03-05T15:55:59.942Z,5.90
2023-03-05T16:01:01.707Z,6.10
2023-03-05T16:06:05.134Z,6.20
2023-03-05T16:11:07.984Z,5.90
2023-03-05T16:16:10.755Z,5.70
2023-03-05T16:21:14.058Z,5.90
2023-03-05T16:26:16.301Z,5.90
2023-03-05T16:31:18.133Z,5.60
2023-03-05T16:36:28.790Z,5.60
2023-03-05T16:41:31.360Z,5.60
2023-03-05T16:46:35.160Z,5.70
2023-03-05T16:51:37.131Z,5.70
2023-03-05T16:56:40.347Z,5.70
2023-03-05T17:01:42.294Z,5.70
2023-03-05T17:06:47.274Z,5.70
2023-03-05T17:11:49.221Z,5.70
2023-03-05T17:16:51.151Z,5.60
2023-03-05T17:21:53.123Z,5.50
2023-03-05T17:26:54.919Z,5.50
2023-03-05T17:31:56.901Z,5.50
2023-03-05T17:36:58.747Z,5.50
2023-03-05T17:42:01.189Z,5.30
2023-03-05T17:47:03.429Z,5.20
2023-03-05T17:52:05.441Z,4.90
2023-03-05T17:57:07.348Z,5.10
2023-03-05T18:02:09.608Z,5.20
2023-03-05T18:07:11.396Z,5.20
2023-03-05T18:12:13.185Z,5.30
2023-03-05T18:17:15.074Z,5.10
2023-03-05T18:22:16.958Z,5.10
2023-03-05T18:27:19.015Z,5.10
2023-03-05T18:32:22.690Z,5.10
2023-03-05T18:37:24.660Z,5.10
2023-03-05T18:42:26.473Z,5.10
2023-03-05T18:47:29.146Z,5.10
2023-03-05T18:52:30.928Z,5.10
2023-03-05T18:57:32.708Z,5.00
2023-03-05T19:02:34.651Z,4.90
2023-03-05T19:07:38.121Z,5.00
2023-03-05T19:13:40.030Z,4.90
2023-03-05T19:19:19.965Z,4.80
2023-03-05T19:24:25.096Z,4.80
2023-03-05T19:29:32.980Z,4.80
2023-03-05T19:34:36.186Z,4.90
2023-03-05T19:39:38.028Z,4.80
2023-03-05T19:44:40.135Z,4.80
2023-03-05T19:49:42.236Z,4.90
2023-03-05T19:54:44.167Z,4.80
2023-03-05T19:59:46.773Z,4.90
2023-03-05T20:04:49.712Z,4.90
2023-03-05T20:09:53.204Z,5.00
2023-03-05T20:14:55.704Z,4.80
2023-03-05T20:20:00.164Z,4.80
2023-03-05T20:25:02.174Z,4.80
2023-03-05T20:30:06.153Z,4.70
2023-03-05T20:35:12.754Z,4.70
2023-03-05T20:40:15.031Z,4.80
2023-03-05T20:45:17.072Z,4.70
2023-03-05T20:50:19.789Z,4.70
2023-03-05T20:55:21.797Z,4.70
2023-03-05T21:00:24.809Z,4.60
2023-03-05T21:05:28.846Z,4.70
2023-03-05T21:10:31.352Z,4.70
2023-03-05T21:15:33.273Z,4.70
2023-03-05T21:20:35.044Z,4.60
2023-03-05T21:25:37.026Z,4.50
2023-03-05T21:30:43.831Z,4.50
2023-03-05T21:35:45.977Z,4.60
2023-03-05T21:40:50.259Z,4.60
2023-03-05T21:45:53.861Z,4.60
2023-03-05T21:50:56.114Z,4.50
2023-03-05T21:56:25.459Z,4.50
2023-03-05T22:01:27.498Z,4.40
2023-03-05T22:06:29.385Z,4.40
2023-03-05T22:11:31.259Z,4.50
2023-03-05T22:16:33.090Z,4.40
2023-03-05T22:21:35.049Z,4.50
2023-03-05T22:26:39.660Z,4.50
2023-03-05T22:31:41.705Z,4.50
2023-03-05T22:36:43.974Z,4.50
2023-03-05T22:41:45.950Z,4.50
2023-03-05T22:46:47.730Z,4.50
2023-03-05T22:51:49.496Z,4.50
2023-03-05T22:56:51.441Z,4.40
2023-03-05T23:01:53.660Z,4.50
2023-03-05T23:06:56.198Z,4.60
2023-03-05T23:11:58.272Z,4.60
2023-03-05T23:17:00.088Z,4.50
2023-03-05T23:22:01.890Z,4.40
2023-03-05T23:27:07.769Z,4.40
2023-03-05T23:32:10.971Z,4.30
2023-03-05T23:37:13.038Z,4.40
2023-03-05T23:42:15.383Z,4.30
2023-03-05T23:47:17.125Z,4.30
2023-03-05T23:52:19.002Z,4.20
2023-03-05T23:57:20.878Z,4.10
